Buckley Air Natl Guard Base, Colorado
Current Conditions -  °F | °C
As of 2:58 PM on Thursday 23 Oct 2014 (Local Time) from KBKF Reporting Station
Broken Clouds Broken Clouds  
Wind Chill: 70°   Ceiling: 20000
Heat Index: 70°   Visibility: 10mi
Dew Point: 28°   Wind: 0mph
Humidity: 21%   Direction: NA
Pressure: 30.13"   Gusts: NA
Location:  39.7351°N, 104.781°W
Report Text: KBKF 232058Z 00000KT 10SM FEW100 BKN200 21/M02 A3013 RMK AO2A SLP154 T02101020 57012
Loading
Personal Weather Stations






























Interactive Weather Map
Tropical Storm Tracking
New forecast layout! Learn more

10-Day Weather Forecast

Advertisements
Track Severe Weather on mobile